Time;durP1;ratioP1;P1;durP2;ratioP2;P2;SDS_P1;SDS_P2;PMS_P1;PMS_P2;Temp;Humidity;BMP_temperature;BMP_pressure;BME280_temperature;BME280_humidity;BME280_pressure;Samples;Min_cycle;Max_cycle;Signal;HPM_P1;HPM_P2
2023/09/26 00:00:21;;;;;;;24.15;22.25;;;7.60;99.90;;;;;;4969780;28;20046;-77
2023/09/26 00:02:51;;;;;;;24.98;22.90;;;7.70;99.90;;;;;;4977991;28;20211;-76
2023/09/26 00:05:23;;;;;;;24.27;22.42;;;7.60;99.90;;;;;;4979364;28;20053;-77
2023/09/26 00:07:51;;;;;;;25.10;22.90;;;7.60;99.90;;;;;;4989910;28;20847;-77
2023/09/26 00:10:18;;;;;;;23.85;21.95;;;7.70;99.90;;;;;;4969454;28;20780;-78
2023/09/26 00:12:46;;;;;;;23.25;21.50;;;7.60;99.90;;;;;;4953405;28;20042;-77
2023/09/26 00:15:13;;;;;;;23.77;21.95;;;7.50;99.90;;;;;;4962031;28;20129;-78
2023/09/26 00:17:40;;;;;;;23.42;21.52;;;7.60;99.90;;;;;;4965067;28;20049;-78
2023/09/26 00:20:10;;;;;;;24.05;22.15;;;7.60;99.90;;;;;;4940679;28;20062;-77
2023/09/26 00:22:37;;;;;;;26.17;24.02;;;7.50;99.90;;;;;;4968037;28;20055;-77
2023/09/26 00:25:05;;;;;;;26.60;24.20;;;7.50;99.90;;;;;;4974037;28;20109;-78
2023/09/26 00:27:32;;;;;;;25.67;23.42;;;7.40;99.90;;;;;;4974642;28;20527;-77
2023/09/26 00:29:59;;;;;;;25.13;23.05;;;7.40;99.90;;;;;;4976221;28;20058;-77
2023/09/26 00:32:26;;;;;;;25.75;23.45;;;7.50;99.90;;;;;;4943742;28;20127;-77
2023/09/26 00:34:52;;;;;;;25.92;23.77;;;7.40;99.90;;;;;;4962798;28;20046;-76
2023/09/26 00:37:19;;;;;;;25.33;23.10;;;7.40;99.90;;;;;;4964473;28;20058;-76
2023/09/26 00:39:47;;;;;;;25.60;23.45;;;7.40;99.90;;;;;;4947615;28;20382;-77
2023/09/26 00:42:14;;;;;;;25.02;22.92;;;7.30;99.90;;;;;;4958815;28;20046;-77
2023/09/26 00:44:40;;;;;;;25.60;23.25;;;7.40;99.90;;;;;;4951473;28;20038;-77
2023/09/26 00:47:07;;;;;;;26.40;23.88;;;7.50;99.90;;;;;;4961005;28;20046;-77
2023/09/26 00:49:35;;;;;;;26.23;23.98;;;7.60;99.90;;;;;;4962432;28;20069;-76
2023/09/26 00:52:04;;;;;;;26.20;23.98;;;7.70;99.90;;;;;;4975893;28;20058;-77
2023/09/26 00:54:32;;;;;;;26.30;24.05;;;7.80;99.90;;;;;;4975931;28;20050;-76
2023/09/26 00:57:00;;;;;;;25.95;23.75;;;7.90;99.90;;;;;;4962800;28;20046;-77
2023/09/26 00:59:28;;;;;;;27.42;24.92;;;7.80;99.90;;;;;;4945773;28;20034;-77
2023/09/26 01:01:55;;;;;;;25.80;23.50;;;7.60;99.90;;;;;;4963006;28;20129;-77
2023/09/26 01:04:23;;;;;;;28.00;25.20;;;7.60;99.90;;;;;;4947963;28;20042;-77
2023/09/26 01:06:50;;;;;;;27.25;24.77;;;7.80;99.90;;;;;;4951585;28;20035;-77
2023/09/26 01:09:17;;;;;;;28.42;25.40;;;7.90;99.90;;;;;;4965714;28;20065;-77
2023/09/26 01:11:44;;;;;;;28.02;25.20;;;7.90;99.90;;;;;;4961115;28;20043;-77
2023/09/26 01:14:11;;;;;;;28.13;25.33;;;7.70;99.90;;;;;;4958981;28;20043;-78
2023/09/26 01:16:38;;;;;;;28.55;26.08;;;7.60;99.90;;;;;;4963643;28;20068;-77
2023/09/26 01:19:06;;;;;;;30.17;26.95;;;7.60;99.90;;;;;;4964472;28;20046;-77
2023/09/26 01:21:33;;;;;;;29.13;26.25;;;7.70;99.90;;;;;;4962163;28;20042;-76
2023/09/26 01:24:00;;;;;;;28.98;26.23;;;7.80;99.90;;;;;;4956340;28;20528;-77
2023/09/26 01:26:36;;;;;;;29.67;26.83;;;7.80;99.90;;;;;;4944589;28;20053;-78
2023/09/26 01:29:04;;;;;;;30.25;27.40;;;7.70;99.90;;;;;;4961437;28;20089;-78
2023/09/26 01:31:34;;;;;;;29.15;26.45;;;7.60;99.90;;;;;;4960590;28;20096;-76
2023/09/26 01:34:02;;;;;;;29.23;26.48;;;7.60;99.90;;;;;;4963300;28;20075;-76
2023/09/26 01:36:30;;;;;;;30.40;27.35;;;7.70;99.90;;;;;;4961540;28;20046;-77
2023/09/26 01:38:56;;;;;;;30.25;27.20;;;7.90;99.90;;;;;;4956256;28;20077;-76
2023/09/26 01:41:24;;;;;;;30.98;28.08;;;7.70;99.90;;;;;;4959353;28;20062;-75
2023/09/26 01:43:51;;;;;;;30.45;27.58;;;7.70;99.90;;;;;;4975621;28;20105;-76
2023/09/26 01:46:22;;;;;;;32.13;29.20;;;7.70;99.90;;;;;;4986437;28;20050;-76
2023/09/26 01:48:49;;;;;;;31.50;28.40;;;7.80;99.90;;;;;;4976040;28;20054;-77
2023/09/26 01:51:16;;;;;;;31.00;28.05;;;7.90;99.90;;;;;;4973038;28;20066;-75
2023/09/26 01:53:43;;;;;;;31.60;28.48;;;7.80;99.90;;;;;;4963608;28;20046;-77
2023/09/26 01:56:10;;;;;;;32.03;28.92;;;7.80;99.90;;;;;;4959789;28;20047;-78
2023/09/26 01:58:37;;;;;;;31.25;28.33;;;7.70;99.90;;;;;;4959752;28;20076;-76
2023/09/26 02:01:04;;;;;;;29.13;26.60;;;7.70;99.90;;;;;;4973737;28;20124;-77
2023/09/26 02:03:31;;;;;;;29.52;26.70;;;7.60;99.90;;;;;;4962206;28;20047;-76
2023/09/26 02:05:58;;;;;;;31.20;28.08;;;7.60;99.90;;;;;;4961563;28;20058;-78
2023/09/26 02:08:25;;;;;;;29.55;26.52;;;7.50;99.90;;;;;;4963277;28;20069;-77
2023/09/26 02:10:52;;;;;;;29.05;26.40;;;7.50;99.90;;;;;;4945287;28;20137;-78
2023/09/26 02:13:19;;;;;;;29.88;26.90;;;7.40;99.90;;;;;;4957455;28;20042;-79
2023/09/26 02:15:46;;;;;;;29.38;26.83;;;7.30;99.90;;;;;;4963069;28;20054;-77
2023/09/26 02:18:13;;;;;;;28.45;26.00;;;7.20;99.90;;;;;;4960619;28;20046;-78
2023/09/26 02:20:40;;;;;;;29.23;26.38;;;7.20;99.90;;;;;;4968412;28;20035;-77
2023/09/26 02:23:06;;;;;;;29.88;27.13;;;7.30;99.90;;;;;;4956960;28;20047;-77
2023/09/26 02:25:33;;;;;;;28.30;25.75;;;7.20;99.90;;;;;;4957828;28;20563;-78
2023/09/26 02:28:01;;;;;;;28.98;26.55;;;7.10;99.90;;;;;;4949606;28;20594;-77
2023/09/26 02:30:28;;;;;;;29.17;26.48;;;7.10;99.90;;;;;;4954663;28;20041;-77
2023/09/26 02:32:55;;;;;;;28.25;25.75;;;7.00;99.90;;;;;;4961518;28;20096;-78
2023/09/26 02:35:24;;;;;;;28.65;26.20;;;7.00;99.90;;;;;;4970748;28;20049;-78
2023/09/26 02:37:50;;;;;;;28.17;25.88;;;6.90;99.90;;;;;;4963470;28;20038;-77
2023/09/26 02:40:17;;;;;;;28.10;25.48;;;6.90;99.90;;;;;;4956650;28;20860;-77
2023/09/26 02:42:45;;;;;;;30.38;27.58;;;6.90;99.90;;;;;;4961972;28;20053;-78
2023/09/26 02:45:13;;;;;;;31.40;28.30;;;6.80;99.90;;;;;;4959996;28;20350;-77
2023/09/26 02:47:41;;;;;;;33.03;30.10;;;7.00;99.90;;;;;;4972662;28;20066;-77
2023/09/26 02:50:08;;;;;;;33.13;30.13;;;7.00;99.90;;;;;;4957491;28;20141;-76
2023/09/26 02:52:37;;;;;;;35.35;30.23;;;7.00;99.90;;;;;;4962440;28;20100;-77
2023/09/26 02:55:04;;;;;;;35.00;31.30;;;7.20;99.90;;;;;;4945750;28;20050;-78
2023/09/26 02:57:33;;;;;;;34.53;31.02;;;7.40;99.90;;;;;;4958549;28;20046;-77
2023/09/26 03:00:09;;;;;;;34.95;31.25;;;7.50;99.90;;;;;;4956658;28;20560;-77
2023/09/26 03:02:35;;;;;;;33.28;29.73;;;7.60;99.90;;;;;;4962964;28;20057;-77
2023/09/26 03:05:02;;;;;;;35.60;31.08;;;7.60;99.90;;;;;;4939727;28;20065;-76
2023/09/26 03:07:29;;;;;;;36.53;32.70;;;7.70;99.90;;;;;;4961510;28;20112;-77
2023/09/26 03:09:56;;;;;;;35.42;31.83;;;7.70;99.90;;;;;;4959795;28;20149;-78
2023/09/26 03:12:23;;;;;;;35.75;32.20;;;7.60;99.90;;;;;;4960090;28;20129;-76
2023/09/26 03:14:49;;;;;;;34.53;31.02;;;7.70;99.90;;;;;;4952848;28;20139;-77
2023/09/26 03:17:16;;;;;;;38.75;32.58;;;7.60;99.90;;;;;;4961818;28;20116;-77
2023/09/26 03:19:44;;;;;;;40.88;32.63;;;7.70;99.90;;;;;;4944892;28;20053;-78
2023/09/26 03:22:11;;;;;;;34.35;30.77;;;7.70;99.90;;;;;;4958818;28;20544;-78
2023/09/26 03:24:39;;;;;;;34.92;31.38;;;7.60;99.90;;;;;;4961294;28;20042;-78
2023/09/26 03:27:05;;;;;;;35.83;31.13;;;7.50;99.90;;;;;;4976365;28;20042;-78
2023/09/26 03:29:41;;;;;;;34.92;31.20;;;7.60;99.90;;;;;;4956606;28;20337;-79
2023/09/26 03:32:08;;;;;;;35.65;31.95;;;7.50;99.90;;;;;;4939316;28;20514;-78
2023/09/26 03:34:35;;;;;;;33.92;30.55;;;7.50;99.90;;;;;;4945983;28;20046;-77
2023/09/26 03:37:02;;;;;;;33.58;30.13;;;7.40;99.90;;;;;;4944628;28;20215;-77
2023/09/26 03:39:29;;;;;;;36.10;32.35;;;7.50;99.90;;;;;;4988554;28;20057;-77
2023/09/26 03:41:56;;;;;;;35.15;31.55;;;7.50;99.90;;;;;;4983016;28;20293;-77
2023/09/26 03:44:23;;;;;;;31.50;28.48;;;7.50;99.90;;;;;;4955504;28;20050;-78
2023/09/26 03:46:50;;;;;;;29.80;27.20;;;7.30;99.90;;;;;;4967109;28;20176;-78
2023/09/26 03:49:16;;;;;;;33.38;29.95;;;7.10;99.90;;;;;;4979409;28;20062;-78
2023/09/26 03:51:43;;;;;;;31.60;28.48;;;7.00;99.90;;;;;;4970430;28;20034;-77
2023/09/26 03:54:10;;;;;;;32.00;28.92;;;6.90;99.90;;;;;;4948790;28;20417;-77
2023/09/26 03:56:37;;;;;;;34.42;30.88;;;6.90;99.90;;;;;;4952608;28;20038;-77
2023/09/26 03:59:03;;;;;;;34.55;31.05;;;6.70;99.90;;;;;;4968974;28;20122;-77
2023/09/26 04:01:30;;;;;;;34.70;31.20;;;6.70;99.90;;;;;;4984324;28;20043;-79
2023/09/26 04:03:57;;;;;;;34.17;30.85;;;6.70;99.90;;;;;;4968789;28;20066;-77
2023/09/26 04:06:24;;;;;;;36.40;32.70;;;6.60;99.90;;;;;;4968017;28;20042;-78
2023/09/26 04:08:51;;;;;;;39.17;35.17;;;6.70;99.90;;;;;;4948259;28;20057;-78
2023/09/26 04:11:18;;;;;;;38.75;34.50;;;6.70;99.90;;;;;;4966747;28;20042;-80
2023/09/26 04:13:45;;;;;;;41.88;36.05;;;6.80;99.90;;;;;;4964943;28;20042;-78
2023/09/26 04:16:12;;;;;;;41.38;35.08;;;7.00;99.90;;;;;;4964150;28;20053;-78
2023/09/26 04:18:39;;;;;;;40.78;35.80;;;7.10;99.90;;;;;;4966261;28;20054;-79
2023/09/26 04:21:06;;;;;;;49.45;37.47;;;7.00;99.90;;;;;;4963545;28;20050;-77
2023/09/26 04:23:38;;;;;;;46.97;37.47;;;7.10;99.90;;;;;;4960262;28;20584;-79
2023/09/26 04:26:15;;;;;;;42.80;36.40;;;7.30;99.90;;;;;;4964093;28;20046;-77
2023/09/26 04:28:44;;;;;;;48.30;37.00;;;7.40;99.90;;;;;;4963276;28;20076;-78
2023/09/26 04:31:16;;;;;;;44.95;37.28;;;7.50;99.90;;;;;;4963410;28;20046;-77
2023/09/26 04:33:48;;;;;;;43.78;37.95;;;7.60;99.90;;;;;;4966160;28;20046;-79
2023/09/26 04:36:16;;;;;;;47.85;38.63;;;7.60;99.90;;;;;;4955904;28;20050;-78
2023/09/26 04:38:43;;;;;;;48.45;38.92;;;7.60;99.90;;;;;;4949175;28;20121;-77
2023/09/26 04:41:10;;;;;;;46.58;37.25;;;7.60;99.90;;;;;;4964568;28;20682;-78
2023/09/26 04:43:37;;;;;;;44.45;36.53;;;7.60;99.90;;;;;;4964931;28;20061;-78
2023/09/26 04:46:11;;;;;;;43.90;37.13;;;7.70;99.90;;;;;;4981888;28;20054;-78
2023/09/26 04:48:39;;;;;;;55.88;39.00;;;7.70;99.90;;;;;;4963790;28;20042;-77
2023/09/26 04:51:13;;;;;;;45.58;37.83;;;7.70;99.90;;;;;;4964961;28;20048;-76
2023/09/26 04:53:41;;;;;;;52.37;38.80;;;7.70;99.90;;;;;;4967380;28;20192;-78
2023/09/26 04:56:08;;;;;;;47.92;37.75;;;7.70;99.90;;;;;;4958225;28;20034;-77
2023/09/26 04:58:35;;;;;;;47.20;37.72;;;7.70;99.90;;;;;;4965911;28;20049;-78
2023/09/26 05:01:12;;;;;;;49.08;38.80;;;7.70;99.90;;;;;;4963232;28;20068;-77
2023/09/26 05:03:39;;;;;;;45.13;37.60;;;7.60;99.90;;;;;;4968608;28;20489;-77
2023/09/26 05:06:07;;;;;;;47.40;38.00;;;7.40;99.90;;;;;;4962287;28;20057;-78
2023/09/26 05:08:34;;;;;;;52.00;39.35;;;7.40;99.90;;;;;;4967116;28;20046;-77
2023/09/26 05:11:01;;;;;;;58.00;43.28;;;7.40;99.90;;;;;;4964931;28;20046;-78
2023/09/26 05:13:28;;;;;;;52.28;41.15;;;7.40;99.90;;;;;;4981683;28;20054;-77
2023/09/26 05:15:55;;;;;;;56.28;42.58;;;7.50;99.90;;;;;;4976453;28;20077;-76
2023/09/26 05:18:24;;;;;;;61.28;45.67;;;7.50;99.90;;;;;;4973087;28;20042;-77
2023/09/26 05:20:51;;;;;;;55.85;42.83;;;7.60;99.90;;;;;;4975409;28;20130;-76
2023/09/26 05:23:18;;;;;;;57.92;43.25;;;7.70;99.90;;;;;;4976141;28;20038;-76
2023/09/26 05:25:45;;;;;;;61.33;43.90;;;7.60;99.90;;;;;;4988859;28;20108;-77
2023/09/26 05:28:11;;;;;;;55.42;42.78;;;7.60;99.90;;;;;;4962129;28;20035;-77
2023/09/26 05:30:40;;;;;;;59.08;43.30;;;7.40;99.90;;;;;;4957844;28;20046;-77
2023/09/26 05:33:08;;;;;;;61.08;45.42;;;7.50;99.90;;;;;;4972860;28;20046;-77
2023/09/26 05:35:35;;;;;;;61.78;45.10;;;7.60;99.90;;;;;;4959868;28;20144;-77
2023/09/26 05:38:01;;;;;;;61.60;43.40;;;7.70;99.90;;;;;;4957347;28;20056;-78
2023/09/26 05:40:28;;;;;;;59.20;42.53;;;7.70;99.90;;;;;;4956737;28;20050;-77
2023/09/26 05:42:55;;;;;;;63.38;43.47;;;7.50;99.90;;;;;;4965375;28;20130;-77
2023/09/26 05:45:22;;;;;;;53.50;41.33;;;7.40;99.90;;;;;;4958216;28;20050;-77
2023/09/26 05:47:49;;;;;;;57.75;40.60;;;7.30;99.90;;;;;;4973557;28;20128;-78
2023/09/26 05:50:16;;;;;;;63.13;43.42;;;7.20;99.90;;;;;;4963531;28;20057;-77
2023/09/26 05:52:43;;;;;;;59.38;43.53;;;7.20;99.90;;;;;;4961162;28;20057;-78
2023/09/26 05:55:09;;;;;;;60.08;44.83;;;7.20;99.90;;;;;;4954830;28;20628;-78
2023/09/26 05:57:37;;;;;;;63.22;46.38;;;7.20;99.90;;;;;;4956921;28;20038;-78
2023/09/26 06:00:05;;;;;;;63.83;45.75;;;7.30;99.90;;;;;;4954491;28;20689;-80
2023/09/26 06:02:36;;;;;;;70.55;47.58;;;7.30;99.90;;;;;;4974155;28;20737;-77
2023/09/26 06:05:03;;;;;;;70.03;46.97;;;7.50;99.90;;;;;;4959986;28;20081;-78
2023/09/26 06:07:30;;;;;;;54.50;43.30;;;7.50;99.90;;;;;;4957310;28;20506;-79
2023/09/26 06:09:57;;;;;;;74.00;46.47;;;7.70;99.90;;;;;;4959385;28;20054;-77
2023/09/26 06:12:35;;;;;;;66.35;46.50;;;7.90;99.90;;;;;;4951704;28;20128;-79
2023/09/26 06:15:05;;;;;;;64.63;47.60;;;8.00;99.90;;;;;;4976763;28;20042;-78
2023/09/26 06:17:32;;;;;;;66.95;45.42;;;8.10;99.90;;;;;;4975521;28;20924;-79
2023/09/26 06:19:59;;;;;;;57.70;44.47;;;8.10;99.90;;;;;;4977025;28;20058;-78
2023/09/26 06:22:27;;;;;;;66.75;47.97;;;8.20;99.90;;;;;;4953829;28;20076;-79
2023/09/26 06:24:53;;;;;;;66.97;46.90;;;8.40;99.90;;;;;;4958691;28;20085;-78
2023/09/26 06:27:21;;;;;;;67.63;47.38;;;8.40;99.90;;;;;;4955422;28;20050;-78
2023/09/26 06:29:47;;;;;;;70.25;48.80;;;8.40;99.90;;;;;;4950629;28;20512;-76
2023/09/26 06:32:14;;;;;;;65.57;47.13;;;8.50;99.90;;;;;;4938130;28;20038;-75
2023/09/26 06:34:42;;;;;;;65.90;47.22;;;8.60;99.90;;;;;;4935105;28;20089;-76
2023/09/26 06:37:09;;;;;;;67.43;48.35;;;8.70;99.90;;;;;;4954264;28;20050;-75
2023/09/26 06:39:36;;;;;;;66.07;46.38;;;8.80;99.90;;;;;;4956146;28;20509;-75
2023/09/26 06:42:03;;;;;;;62.05;45.80;;;8.80;99.90;;;;;;4951982;28;20046;-75
2023/09/26 06:44:29;;;;;;;63.53;43.65;;;8.80;99.90;;;;;;4952129;28;20115;-76
2023/09/26 06:46:57;;;;;;;62.42;46.45;;;8.90;99.90;;;;;;4952667;28;22413;-76
2023/09/26 06:49:24;;;;;;;58.75;44.50;;;9.00;99.90;;;;;;4934622;28;20061;-77
2023/09/26 06:51:51;;;;;;;60.10;45.65;;;9.10;99.90;;;;;;4970171;28;20429;-77
2023/09/26 06:54:18;;;;;;;56.90;45.13;;;9.20;99.90;;;;;;4956973;28;20050;-76
2023/09/26 06:56:45;;;;;;;55.35;44.75;;;9.20;99.90;;;;;;4969995;28;20695;-76
2023/09/26 06:59:12;;;;;;;56.55;43.88;;;9.30;99.90;;;;;;4954930;28;20488;-76
2023/09/26 07:01:39;;;;;;;57.50;44.00;;;9.50;99.90;;;;;;4967357;28;20042;-77
2023/09/26 07:04:13;;;;;;;59.22;44.85;;;9.70;99.90;;;;;;4954947;28;20106;-76
2023/09/26 07:06:41;;;;;;;49.90;42.55;;;9.90;99.90;;;;;;4961570;28;20141;-76
2023/09/26 07:09:08;;;;;;;53.10;43.78;;;10.00;99.90;;;;;;4955994;28;20152;-77
2023/09/26 07:11:35;;;;;;;50.80;42.05;;;10.10;99.90;;;;;;4949942;28;20141;-76
2023/09/26 07:14:02;;;;;;;48.55;38.40;;;10.20;99.90;;;;;;4961549;28;20050;-75
2023/09/26 07:16:33;;;;;;;46.60;39.33;;;10.40;99.90;;;;;;4951783;28;20110;-76
2023/09/26 07:19:01;;;;;;;41.65;37.47;;;10.50;99.90;;;;;;4973065;28;20046;-75
2023/09/26 07:21:28;;;;;;;38.05;34.38;;;10.70;99.90;;;;;;4948796;28;20035;-76
2023/09/26 07:23:55;;;;;;;37.55;34.08;;;11.00;99.90;;;;;;4970273;28;20038;-76
2023/09/26 07:26:22;;;;;;;33.97;31.17;;;11.20;99.90;;;;;;4955696;28;20034;-76
2023/09/26 07:28:51;;;;;;;36.00;32.83;;;11.40;99.90;;;;;;4971203;28;21120;-76
2023/09/26 07:31:19;;;;;;;30.30;28.20;;;11.70;99.90;;;;;;4968835;28;20039;-76
2023/09/26 07:33:46;;;;;;;30.23;27.45;;;12.10;99.90;;;;;;4956497;28;20133;-76
2023/09/26 07:36:13;;;;;;;26.77;24.50;;;12.30;99.90;;;;;;4954605;28;20038;-74
2023/09/26 07:38:40;;;;;;;24.13;22.30;;;12.70;99.90;;;;;;4949321;28;20626;-74
2023/09/26 07:41:07;;;;;;;20.27;18.92;;;13.10;99.90;;;;;;4963558;28;20049;-75
2023/09/26 07:43:34;;;;;;;24.75;18.65;;;13.60;99.90;;;;;;4973318;28;20411;-75
2023/09/26 07:46:12;;;;;;;22.75;21.23;;;13.90;99.90;;;;;;4952344;28;20041;-75
2023/09/26 07:48:39;;;;;;;24.27;22.58;;;14.20;99.90;;;;;;4971421;28;20050;-76
2023/09/26 07:51:09;;;;;;;26.95;24.67;;;14.60;99.90;;;;;;4971028;28;20053;-76
2023/09/26 07:53:39;;;;;;;25.08;23.23;;;14.90;99.90;;;;;;4939994;28;20133;-75
2023/09/26 07:56:06;;;;;;;25.20;23.25;;;15.20;99.90;;;;;;4963392;28;20038;-76
2023/09/26 07:58:32;;;;;;;25.83;23.77;;;15.60;99.90;;;;;;4955241;28;20270;-75
2023/09/26 08:01:00;;;;;;;26.02;23.88;;;16.10;99.90;;;;;;4964147;28;20054;-77
2023/09/26 08:03:27;;;;;;;26.42;24.73;;;16.40;99.90;;;;;;4953910;28;20425;-75
2023/09/26 08:06:02;;;;;;;26.42;24.42;;;16.60;99.90;;;;;;4973387;28;20349;-76
2023/09/26 08:08:29;;;;;;;26.25;24.50;;;16.70;99.90;;;;;;4949507;28;20050;-77
2023/09/26 08:10:56;;;;;;;26.13;24.42;;;16.80;99.90;;;;;;4956243;28;20685;-76
2023/09/26 08:13:23;;;;;;;25.08;23.17;;;16.80;99.90;;;;;;4937931;28;20281;-77
2023/09/26 08:15:51;;;;;;;26.75;24.85;;;16.90;99.90;;;;;;4951707;28;20066;-77
2023/09/26 08:18:18;;;;;;;33.42;24.23;;;17.00;99.90;;;;;;4953195;28;20054;-76
2023/09/26 08:20:44;;;;;;;26.20;24.38;;;17.30;99.90;;;;;;4971763;28;20108;-76
2023/09/26 08:23:11;;;;;;;24.90;23.40;;;17.60;99.90;;;;;;4950794;28;20042;-76
2023/09/26 08:25:38;;;;;;;26.58;23.88;;;17.60;99.90;;;;;;4953980;28;20046;-77
2023/09/26 08:28:05;;;;;;;27.30;25.20;;;17.90;99.90;;;;;;4954994;28;20714;-77
2023/09/26 08:30:33;;;;;;;28.70;26.40;;;17.90;99.90;;;;;;4950742;28;20100;-76
2023/09/26 08:33:00;;;;;;;28.48;26.60;;;18.00;99.90;;;;;;4934112;28;20804;-76
2023/09/26 08:35:27;;;;;;;29.38;27.27;;;18.00;99.90;;;;;;4968374;28;20075;-76
2023/09/26 08:37:55;;;;;;;28.35;26.20;;;18.00;99.90;;;;;;4955038;28;20042;-76
2023/09/26 08:40:25;;;;;;;64.97;31.00;;;18.30;99.90;;;;;;4935608;28;20050;-75
2023/09/26 08:42:57;;;;;;;27.58;25.77;;;18.30;99.90;;;;;;4957736;28;20105;-77
2023/09/26 08:45:27;;;;;;;27.92;25.83;;;18.60;99.90;;;;;;4970463;28;20072;-77
2023/09/26 08:47:58;;;;;;;33.30;26.13;;;18.70;99.90;;;;;;4957224;28;20555;-77
2023/09/26 08:50:25;;;;;;;264.17;46.13;;;19.00;99.90;;;;;;4969219;28;20551;-76
2023/09/26 08:52:58;;;;;;;27.63;25.70;;;19.00;99.90;;;;;;4956518;28;20058;-77
2023/09/26 08:55:27;;;;;;;28.13;26.33;;;19.20;99.90;;;;;;4953330;28;20050;-77
2023/09/26 08:57:55;;;;;;;29.42;26.75;;;19.20;99.90;;;;;;4956054;28;20049;-77
2023/09/26 09:00:22;;;;;;;27.85;26.05;;;19.50;99.90;;;;;;4964361;28;20050;-76
2023/09/26 09:02:49;;;;;;;28.88;27.08;;;19.90;99.90;;;;;;4956584;28;20485;-77
2023/09/26 09:05:21;;;;;;;28.17;26.48;;;20.00;99.90;;;;;;4973264;28;20547;-77
2023/09/26 09:07:48;;;;;;;29.80;27.80;;;20.20;99.90;;;;;;4972162;28;20038;-78
2023/09/26 09:10:19;;;;;;;29.85;27.75;;;20.30;99.90;;;;;;4955831;28;20528;-77
2023/09/26 09:12:47;;;;;;;28.00;26.20;;;20.50;99.90;;;;;;4953235;28;20116;-78
2023/09/26 09:15:15;;;;;;;29.27;27.23;;;20.40;99.90;;;;;;4957578;28;20104;-78
2023/09/26 09:17:47;;;;;;;29.98;27.98;;;20.30;99.90;;;;;;4955212;28;20054;-77
2023/09/26 09:20:26;;;;;;;29.60;27.67;;;20.10;99.90;;;;;;4958309;28;20666;-78
2023/09/26 09:23:05;;;;;;;30.08;28.25;;;20.20;99.90;;;;;;4973933;28;20099;-79
2023/09/26 09:25:37;;;;;;;28.50;26.60;;;20.40;99.90;;;;;;4971628;28;20586;-78
2023/09/26 09:28:07;;;;;;;28.88;27.02;;;20.50;99.90;;;;;;4956567;28;20096;-75
2023/09/26 09:30:43;;;;;;;29.60;27.50;;;20.80;99.90;;;;;;4932600;28;20054;-75
2023/09/26 09:33:11;;;;;;;27.83;26.02;;;20.90;99.90;;;;;;4952506;28;20612;-75
2023/09/26 09:35:37;;;;;;;27.23;25.42;;;21.10;99.90;;;;;;4954710;28;20054;-73
2023/09/26 09:38:08;;;;;;;28.52;26.63;;;21.20;99.90;;;;;;4951830;28;20054;-76
2023/09/26 09:40:35;;;;;;;28.45;26.60;;;21.10;99.90;;;;;;4968617;28;20046;-77
2023/09/26 09:43:02;;;;;;;29.08;27.08;;;21.10;99.90;;;;;;4956879;28;20091;-78
2023/09/26 09:45:34;;;;;;;28.20;26.38;;;21.10;99.90;;;;;;4953542;28;20039;-77
2023/09/26 09:48:06;;;;;;;28.42;26.42;;;21.20;99.90;;;;;;4964445;28;20122;-77
2023/09/26 09:50:38;;;;;;;29.70;27.25;;;21.20;99.90;;;;;;4969949;28;20667;-76
2023/09/26 09:53:06;;;;;;;29.63;27.52;;;21.10;99.90;;;;;;4971080;28;20527;-77
2023/09/26 09:55:38;;;;;;;28.13;26.35;;;21.30;99.90;;;;;;4953173;28;20042;-76
2023/09/26 09:58:11;;;;;;;29.15;27.25;;;21.40;99.90;;;;;;4956098;28;20054;-77
2023/09/26 10:00:40;;;;;;;28.85;26.95;;;21.50;99.90;;;;;;4968269;28;20653;-78
2023/09/26 10:03:09;;;;;;;30.88;28.40;;;21.50;99.90;;;;;;4970747;28;20034;-77
2023/09/26 10:05:39;;;;;;;29.85;27.85;;;21.50;99.90;;;;;;4969479;28;20591;-79
2023/09/26 10:08:07;;;;;;;29.92;27.63;;;21.50;99.90;;;;;;4978389;28;20050;-78
2023/09/26 10:10:34;;;;;;;29.63;27.58;;;21.60;99.90;;;;;;4965081;28;20073;-80
2023/09/26 10:13:03;;;;;;;30.20;28.30;;;21.70;99.90;;;;;;4971417;28;20073;-77
2023/09/26 10:16:18;;;;;;;31.38;29.27;;;21.70;99.90;;;;;;4971476;28;20118;-79
2023/09/26 10:18:47;;;;;;;30.80;28.65;;;21.70;99.90;;;;;;4958618;28;20053;-77
2023/09/26 10:21:27;;;;;;;31.58;29.55;;;21.60;99.90;;;;;;4959474;28;20049;-77
2023/09/26 10:24:09;;;;;;;31.92;29.83;;;21.50;99.90;;;;;;4955742;28;20437;-77
2023/09/26 10:26:39;;;;;;;31.05;28.83;;;21.50;99.90;;;;;;4953881;28;20050;-78
2023/09/26 10:29:10;;;;;;;29.35;27.35;;;21.70;99.90;;;;;;4956139;28;20042;-76
2023/09/26 10:31:49;;;;;;;29.92;28.02;;;22.00;99.90;;;;;;4966800;28;20097;-77
2023/09/26 10:34:16;;;;;;;30.80;28.80;;;22.10;99.90;;;;;;4959668;28;20046;-76
2023/09/26 10:36:43;;;;;;;30.90;28.55;;;22.30;99.90;;;;;;4960429;28;20084;-76
2023/09/26 10:39:10;;;;;;;30.42;28.42;;;22.20;99.90;;;;;;4983998;28;20046;-75
2023/09/26 10:41:40;;;;;;;31.40;29.02;;;21.90;99.90;;;;;;4976627;28;20097;-76
2023/09/26 10:44:26;;;;;;;31.05;29.05;;;22.00;99.90;;;;;;4956388;28;20124;-75
2023/09/26 10:47:06;;;;;;;31.35;28.77;;;21.60;99.90;;;;;;4968306;28;20410;-76
2023/09/26 10:49:33;;;;;;;31.67;29.30;;;21.50;99.90;;;;;;4973122;28;20114;-75
2023/09/26 10:52:05;;;;;;;29.40;27.42;;;21.30;99.90;;;;;;4957923;28;20046;-78
2023/09/26 10:54:34;;;;;;;30.88;28.52;;;21.10;99.90;;;;;;4936360;28;20809;-76
2023/09/26 10:57:01;;;;;;;30.83;28.67;;;21.40;99.90;;;;;;4939166;28;20131;-76
2023/09/26 10:59:29;;;;;;;29.88;27.95;;;21.40;99.90;;;;;;4952084;28;20051;-75
2023/09/26 11:02:16;;;;;;;31.30;29.10;;;21.50;99.90;;;;;;4955519;28;20138;-76
2023/09/26 11:04:43;;;;;;;30.17;28.08;;;21.50;99.90;;;;;;4954047;28;20049;-75
2023/09/26 11:07:30;;;;;;;30.58;28.63;;;21.50;99.90;;;;;;4950489;28;20226;-76
2023/09/26 11:09:57;;;;;;;29.92;27.77;;;21.60;99.90;;;;;;4970388;28;20531;-75
2023/09/26 11:12:24;;;;;;;30.73;28.45;;;21.70;99.90;;;;;;4959286;28;20432;-75
2023/09/26 11:14:54;;;;;;;29.63;27.30;;;21.60;99.90;;;;;;4969075;28;20038;-76
2023/09/26 11:17:21;;;;;;;30.33;28.13;;;21.70;99.90;;;;;;4953499;28;20042;-76
2023/09/26 11:19:48;;;;;;;30.77;28.38;;;21.80;99.90;;;;;;4968085;28;20101;-75
2023/09/26 11:22:14;;;;;;;31.30;29.27;;;21.50;99.90;;;;;;4954996;28;20070;-76
2023/09/26 11:24:42;;;;;;;30.85;28.75;;;21.50;99.90;;;;;;4967354;28;20041;-74
2023/09/26 11:27:09;;;;;;;30.90;28.67;;;21.50;99.90;;;;;;4972312;28;20680;-78
2023/09/26 11:29:36;;;;;;;30.58;28.40;;;21.70;99.90;;;;;;4946266;28;20058;-76
2023/09/26 11:32:03;;;;;;;31.00;28.98;;;22.00;99.90;;;;;;4938631;28;20418;-75
2023/09/26 11:34:34;;;;;;;30.38;28.42;;;22.10;99.90;;;;;;4969774;28;20137;-77
2023/09/26 11:37:01;;;;;;;30.33;28.30;;;22.40;99.90;;;;;;4952961;28;20575;-76
2023/09/26 11:39:28;;;;;;;29.98;28.05;;;22.40;99.90;;;;;;4966379;28;20042;-76
2023/09/26 11:42:08;;;;;;;30.17;28.17;;;22.60;99.90;;;;;;4965232;28;20140;-76
2023/09/26 11:44:36;;;;;;;29.58;27.67;;;22.80;99.90;;;;;;4942928;28;20402;-75
2023/09/26 11:47:05;;;;;;;30.27;28.27;;;22.80;99.90;;;;;;4962083;28;20051;-75
2023/09/26 11:49:34;;;;;;;30.63;28.58;;;22.70;99.90;;;;;;4949769;28;20050;-76
2023/09/26 11:52:01;;;;;;;29.42;27.42;;;22.80;99.90;;;;;;4953144;28;20050;-76
2023/09/26 11:54:28;;;;;;;31.05;29.02;;;22.90;99.90;;;;;;4970633;28;20049;-75
2023/09/26 11:56:55;;;;;;;29.77;27.90;;;23.00;99.90;;;;;;4950118;28;20097;-75
2023/09/26 11:59:22;;;;;;;29.08;27.17;;;22.90;99.90;;;;;;4951457;28;20046;-77
2023/09/26 12:01:50;;;;;;;29.55;27.65;;;22.90;99.90;;;;;;4950471;28;20054;-74
2023/09/26 12:04:17;;;;;;;29.50;27.58;;;22.70;99.90;;;;;;4962305;28;20460;-75
2023/09/26 12:06:45;;;;;;;29.27;27.30;;;22.70;99.90;;;;;;4953494;28;20536;-75
2023/09/26 12:09:20;;;;;;;29.48;27.58;;;22.90;99.90;;;;;;4956350;28;20046;-77
2023/09/26 12:11:56;;;;;;;29.23;27.23;;;23.00;99.90;;;;;;4947477;28;20050;-76
2023/09/26 12:14:26;;;;;;;29.60;27.38;;;22.90;99.90;;;;;;4961208;28;20050;-75
2023/09/26 12:17:13;;;;;;;;;;;;;;;;;;;;;
2023/09/26 12:19:58;;;;;;;28.83;27.02;;;22.70;99.90;;;;;;4963147;28;20089;-79
2023/09/26 12:22:43;;;;;;;29.77;27.67;;;22.50;99.90;;;;;;4967364;28;20062;-75
2023/09/26 12:25:25;;;;;;;28.77;26.55;;;22.90;99.90;;;;;;4963028;28;20057;-77
2023/09/26 12:28:15;;;;;;;29.48;27.48;;;22.90;99.90;;;;;;4964978;28;20046;-78
2023/09/26 12:31:12;;;;;;;29.25;27.17;;;22.90;99.90;;;;;;4964791;28;20061;-75
2023/09/26 12:33:48;;;;;;;29.23;27.13;;;22.70;99.90;;;;;;4979508;28;20113;-78
2023/09/26 12:36:14;;;;;;;29.17;27.08;;;22.60;99.90;;;;;;4983535;28;20481;-77
2023/09/26 12:39:12;;;;;;;29.70;27.70;;;22.70;99.90;;;;;;4974746;28;20097;-80
2023/09/26 12:46:03;;;;;;;28.83;26.98;;;22.90;99.90;;;;;;4989620;28;20058;-78